Pagrindinis puslapis
METAR-TAF:

METAR-TAF

Oro uostai :

Palermas, Italija

platuma: 38-11N, ilguma: 013-06E, Aukštis: 21 m

Dabartinis oras

Ataskaita buvo paskelbta 17 minutes, ne 22:20 UTC
Vėjas 7 kt iš Pietų
Temperatūra 12°C
Drėgmė 82%
Slėgis 1023 hPa
Matomumas 10 km arba daugiau
Mažai debesys ne aukštis 2000 ft

METAR: LICJ 272220Z 18007KT 9999 FEW020 12/09 Q1023

Laikas: 23:37 (22:37 UTC)

Prognozė

Ataskaita buvo paskelbta 5 valandos ir 37 minutes, ne 17:00 UTC
Prognozė galioja nuo 27 metu 18 UTC su 28 metu 18 UTC
Vėjas 10 kt iš Pietų/Pietvakarių
Matomumas 10 km arba daugiau
Išsisklaidę debesys ne aukštis 2000 ft
Tapsmas
nuo 28 metu 07 UTC su 28 metu 09 UTC
Vėjas 16 kt iš Vakarų

TAF: LICJ 271700Z 2718/2818 20010KT 9999 SCT020 BECMG 2807/2809 26016KT

Orai ataskaitas ir orų prognozės (METAR, TAF).

turimą stotys yra geltonos ir raudonos taškus žemėlapyje.

Perkelti pele per norėdami pamatyti stoties vardą.

Tada spustelėkite, norėdami matyti oro stebėjimo ir prognozės.

Norėdami pakeisti žemėlapį: spustelėkite ant žalios mygtukų su juodo kryžiaus žemyn,; žalią mygtuką su brūkšneliu, jei norite nutolinti; arba žalių rodyklių gretimoms žemėlapius.


METAR-TAF: